Time;durP1;ratioP1;P1;durP2;ratioP2;P2;SDS_P1;SDS_P2;PMS_P1;PMS_P2;Temp;Humidity;BMP_temperature;BMP_pressure;BME280_temperature;BME280_humidity;BME280_pressure;Samples;Min_cycle;Max_cycle;Signal;HPM_P1;HPM_P2
2022/04/24 00:01:11;;;;;;;25.13;19.70;;;8.40;99.90;;;;;;5071166;28;20469;-66
2022/04/24 00:03:38;;;;;;;24.27;18.53;;;8.50;99.90;;;;;;5082491;28;20456;-66
2022/04/24 00:06:05;;;;;;;24.33;18.47;;;8.70;99.90;;;;;;5082960;28;20469;-66
2022/04/24 00:08:33;;;;;;;20.13;17.90;;;8.70;99.90;;;;;;5085013;28;20952;-66
2022/04/24 00:11:00;;;;;;;18.43;16.47;;;8.80;99.90;;;;;;5080557;28;20447;-67
2022/04/24 00:13:27;;;;;;;20.03;17.90;;;8.90;99.90;;;;;;5070547;28;20937;-67
2022/04/24 00:15:54;;;;;;;19.73;17.67;;;8.90;99.90;;;;;;5070734;28;20486;-66
2022/04/24 00:18:20;;;;;;;20.10;16.93;;;9.00;99.90;;;;;;5070651;28;20446;-66
2022/04/24 00:20:47;;;;;;;19.30;15.73;;;9.20;99.90;;;;;;5070885;28;20461;-66
2022/04/24 00:23:14;;;;;;;20.93;17.03;;;9.20;99.90;;;;;;5070625;28;21184;-65
2022/04/24 00:25:42;;;;;;;20.70;17.33;;;9.20;99.90;;;;;;5070814;28;20454;-66
2022/04/24 00:28:09;;;;;;;19.13;15.57;;;9.30;99.90;;;;;;5072014;28;20462;-66
2022/04/24 00:30:36;;;;;;;21.60;17.93;;;9.30;99.90;;;;;;5071208;28;21004;-65
2022/04/24 00:33:02;;;;;;;20.73;16.60;;;9.30;99.90;;;;;;5072335;28;20984;-66
2022/04/24 00:35:31;;;;;;;18.37;15.63;;;9.20;99.90;;;;;;5071969;28;20562;-66
2022/04/24 00:37:57;;;;;;;20.70;17.33;;;9.20;99.90;;;;;;5071992;28;20443;-67
2022/04/24 00:40:24;;;;;;;20.63;17.67;;;9.20;99.90;;;;;;5072399;28;20884;-67
2022/04/24 00:42:53;;;;;;;19.20;16.67;;;9.30;99.90;;;;;;5072232;28;20451;-66
2022/04/24 00:45:20;;;;;;;19.00;16.70;;;9.40;99.90;;;;;;5072052;28;20467;-66
2022/04/24 00:47:47;;;;;;;19.70;15.60;;;9.60;99.90;;;;;;5072251;28;20453;-66
2022/04/24 00:50:14;;;;;;;18.90;15.93;;;9.70;99.90;;;;;;5071943;28;20475;-67
2022/04/24 00:52:41;;;;;;;18.00;15.13;;;9.80;99.90;;;;;;5071961;28;20457;-66
2022/04/24 00:55:08;;;;;;;21.63;16.80;;;9.70;99.90;;;;;;5071942;28;20469;-67
2022/04/24 00:57:35;;;;;;;19.17;16.67;;;9.70;99.90;;;;;;5071995;28;20526;-65
2022/04/24 01:00:05;;;;;;;18.57;16.57;;;9.70;99.90;;;;;;5072220;28;20511;-67
2022/04/24 01:02:32;;;;;;;20.43;17.13;;;9.60;99.90;;;;;;5072525;28;20443;-66
2022/04/24 01:04:59;;;;;;;23.03;17.00;;;9.60;99.90;;;;;;5071254;28;20464;-67
2022/04/24 01:07:26;;;;;;;18.60;16.60;;;9.70;99.90;;;;;;5071921;28;20608;-67
2022/04/24 01:09:53;;;;;;;17.97;15.37;;;9.80;99.90;;;;;;5071684;28;20577;-66
2022/04/24 01:12:20;;;;;;;19.13;15.87;;;9.90;99.90;;;;;;5071926;28;20451;-67
2022/04/24 01:14:47;;;;;;;18.23;16.33;;;10.00;99.90;;;;;;5071142;28;20473;-66
2022/04/24 01:17:15;;;;;;;18.87;15.00;;;10.00;99.90;;;;;;5071511;28;20543;-67
2022/04/24 01:19:42;;;;;;;21.67;14.37;;;10.10;99.90;;;;;;5071494;28;20447;-66
2022/04/24 01:22:10;;;;;;;15.40;13.53;;;10.10;99.90;;;;;;5071420;28;20465;-67
2022/04/24 01:24:37;;;;;;;17.13;15.30;;;10.20;99.90;;;;;;5071208;28;20463;-67
2022/04/24 01:27:05;;;;;;;17.53;15.70;;;10.20;99.90;;;;;;5071518;28;20451;-66
2022/04/24 01:29:32;;;;;;;17.43;15.53;;;10.30;99.90;;;;;;5071403;28;20567;-67
2022/04/24 01:31:58;;;;;;;17.30;15.50;;;10.30;99.90;;;;;;5071187;28;20526;-67
2022/04/24 01:34:25;;;;;;;17.40;15.37;;;10.30;99.90;;;;;;5071030;28;20463;-67
2022/04/24 01:36:52;;;;;;;17.70;15.80;;;10.20;99.90;;;;;;5071056;28;20443;-67
2022/04/24 01:39:20;;;;;;;18.27;16.00;;;10.20;99.90;;;;;;5071276;28;20466;-66
2022/04/24 01:41:47;;;;;;;17.33;15.37;;;10.30;99.90;;;;;;5071049;28;20535;-67
2022/04/24 01:44:14;;;;;;;20.27;16.00;;;10.30;99.90;;;;;;5070821;28;20474;-66
2022/04/24 01:46:41;;;;;;;16.93;15.00;;;10.20;99.90;;;;;;5070797;28;20466;-67
2022/04/24 01:49:08;;;;;;;16.10;14.40;;;10.20;99.90;;;;;;5071064;28;20443;-67
2022/04/24 01:51:35;;;;;;;18.27;15.33;;;10.30;99.90;;;;;;5070903;28;20526;-66
2022/04/24 01:54:02;;;;;;;16.37;14.30;;;10.20;99.90;;;;;;5070780;28;20486;-66
2022/04/24 01:56:30;;;;;;;16.00;14.27;;;10.20;99.90;;;;;;5070975;28;20877;-66
2022/04/24 01:58:57;;;;;;;16.57;14.87;;;10.30;99.90;;;;;;5070831;28;20453;-66
2022/04/24 02:01:23;;;;;;;16.20;14.33;;;10.30;99.90;;;;;;5070697;28;20446;-66
2022/04/24 02:03:50;;;;;;;17.17;15.40;;;10.30;99.90;;;;;;5070973;28;20475;-66
2022/04/24 02:06:17;;;;;;;17.60;15.77;;;10.40;99.90;;;;;;5070726;28;20443;-66
2022/04/24 02:08:44;;;;;;;17.50;15.60;;;10.40;99.90;;;;;;5071058;28;20447;-66
2022/04/24 02:11:11;;;;;;;18.43;15.50;;;10.40;99.90;;;;;;5070957;28;20517;-66
2022/04/24 02:13:39;;;;;;;19.37;16.87;;;10.50;99.90;;;;;;5070582;28;20463;-67
2022/04/24 02:16:06;;;;;;;19.77;16.33;;;10.40;99.90;;;;;;5070417;28;20439;-66
2022/04/24 02:18:33;;;;;;;21.40;17.83;;;10.30;99.90;;;;;;5070194;28;20447;-66
2022/04/24 02:21:00;;;;;;;20.57;16.83;;;10.20;99.90;;;;;;5070432;28;20457;-66
2022/04/24 02:23:27;;;;;;;20.30;17.83;;;10.20;99.90;;;;;;5070292;28;20827;-66
2022/04/24 02:25:54;;;;;;;18.83;16.87;;;10.10;99.90;;;;;;5070041;28;20451;-66
2022/04/24 02:28:21;;;;;;;20.70;18.00;;;10.20;99.90;;;;;;5070089;28;21083;-67
2022/04/24 02:30:49;;;;;;;17.23;15.43;;;10.10;99.90;;;;;;5070160;28;20483;-66
2022/04/24 02:33:16;;;;;;;17.87;15.97;;;10.20;99.90;;;;;;5070119;28;21052;-67
2022/04/24 02:35:43;;;;;;;19.23;16.03;;;10.10;99.90;;;;;;5069735;28;20475;-65
2022/04/24 02:38:10;;;;;;;18.60;16.27;;;10.00;99.90;;;;;;5070035;28;20949;-67
2022/04/24 02:40:37;;;;;;;21.10;16.87;;;10.00;99.90;;;;;;5069983;28;20906;-66
2022/04/24 02:43:05;;;;;;;21.30;17.20;;;10.00;99.90;;;;;;5070108;28;20538;-66
2022/04/24 02:45:32;;;;;;;21.47;16.70;;;9.90;99.90;;;;;;5069650;28;20475;-66
2022/04/24 02:48:01;;;;;;;21.23;16.00;;;10.00;99.90;;;;;;5069985;28;20443;-66
2022/04/24 02:50:28;;;;;;;18.67;16.70;;;10.00;99.90;;;;;;5069762;28;20529;-66
2022/04/24 02:52:56;;;;;;;19.30;15.20;;;10.00;99.90;;;;;;5069925;28;20454;-66
2022/04/24 02:55:24;;;;;;;20.17;16.33;;;10.00;99.90;;;;;;5069311;28;20470;-67
2022/04/24 02:57:52;;;;;;;18.70;16.50;;;9.90;99.90;;;;;;5069907;28;20451;-66
2022/04/24 03:00:22;;;;;;;20.50;18.30;;;9.80;99.90;;;;;;5070022;28;20529;-66
2022/04/24 03:02:50;;;;;;;21.67;18.53;;;9.80;99.90;;;;;;5069676;28;20550;-66
2022/04/24 03:05:20;;;;;;;24.47;19.80;;;9.70;99.90;;;;;;5069274;28;20570;-66
2022/04/24 03:07:47;;;;;;;23.00;19.20;;;9.60;99.90;;;;;;5069711;28;20459;-66
2022/04/24 03:10:15;;;;;;;22.07;19.30;;;9.60;99.90;;;;;;5069520;28;20481;-67
2022/04/24 03:12:43;;;;;;;24.20;20.40;;;9.60;99.90;;;;;;5070005;28;20949;-65
2022/04/24 03:15:14;;;;;;;25.30;19.37;;;9.60;99.90;;;;;;5069363;28;20502;-67
2022/04/24 03:17:41;;;;;;;20.70;18.40;;;9.60;99.90;;;;;;5069952;28;20532;-67
2022/04/24 03:20:10;;;;;;;25.70;18.53;;;9.60;99.90;;;;;;5069402;28;20443;-66
2022/04/24 03:22:38;;;;;;;22.47;19.10;;;9.60;99.90;;;;;;5069364;28;20467;-66
2022/04/24 03:25:07;;;;;;;23.37;20.43;;;9.70;99.90;;;;;;5069214;28;20467;-66
2022/04/24 03:27:34;;;;;;;25.83;18.90;;;9.60;99.90;;;;;;5069721;28;20447;-66
2022/04/24 03:30:01;;;;;;;23.80;19.93;;;9.70;99.90;;;;;;5071950;28;20481;-67
2022/04/24 03:32:31;;;;;;;24.30;19.83;;;9.70;99.90;;;;;;5073782;28;21126;-67
2022/04/24 03:34:58;;;;;;;24.03;19.03;;;9.80;99.90;;;;;;5073500;28;20518;-67
2022/04/24 03:37:25;;;;;;;25.20;19.10;;;9.80;99.90;;;;;;5073689;28;20945;-66
2022/04/24 03:39:53;;;;;;;22.10;18.80;;;9.80;99.90;;;;;;5073477;28;20937;-67
2022/04/24 03:42:20;;;;;;;23.13;17.80;;;9.80;99.90;;;;;;5073514;28;20529;-66
2022/04/24 03:44:47;;;;;;;26.50;21.13;;;9.80;99.90;;;;;;5073121;28;20467;-67
2022/04/24 03:47:14;;;;;;;24.20;20.70;;;9.90;99.90;;;;;;5073570;28;20457;-67
2022/04/24 03:49:41;;;;;;;27.73;21.67;;;9.90;99.90;;;;;;5073157;28;20538;-67
2022/04/24 03:52:09;;;;;;;29.47;21.70;;;9.90;99.90;;;;;;5073355;28;21198;-67
2022/04/24 03:54:35;;;;;;;23.17;20.47;;;9.80;99.90;;;;;;5072871;28;20473;-67
2022/04/24 03:57:04;;;;;;;27.43;20.73;;;9.80;99.90;;;;;;5073113;28;20451;-68
2022/04/24 03:59:31;;;;;;;27.63;22.10;;;9.90;99.90;;;;;;5073146;28;20443;-67
2022/04/24 04:01:58;;;;;;;26.20;22.40;;;9.80;99.90;;;;;;5073102;28;20454;-66
2022/04/24 04:04:25;;;;;;;24.63;20.10;;;9.70;99.90;;;;;;5072753;28;20562;-66
2022/04/24 04:06:52;;;;;;;23.57;20.00;;;9.80;99.90;;;;;;5073121;28;20459;-67
2022/04/24 04:09:19;;;;;;;25.13;21.13;;;9.80;99.90;;;;;;5072965;28;20449;-66
2022/04/24 04:11:46;;;;;;;26.53;20.37;;;9.80;99.90;;;;;;5072715;28;20474;-67
2022/04/24 04:14:14;;;;;;;23.60;21.03;;;9.90;99.90;;;;;;5072427;28;20462;-67
2022/04/24 04:16:41;;;;;;;27.80;20.90;;;10.00;99.90;;;;;;5072624;28;20454;-66
2022/04/24 04:19:08;;;;;;;29.17;22.53;;;10.00;99.90;;;;;;5073236;28;20488;-67
2022/04/24 04:21:35;;;;;;;24.33;20.00;;;10.00;99.90;;;;;;5072497;28;20460;-67
2022/04/24 04:24:02;;;;;;;24.53;20.07;;;10.00;99.90;;;;;;5071839;28;20463;-67
2022/04/24 04:26:28;;;;;;;29.70;21.07;;;10.00;99.90;;;;;;5071579;28;20439;-67
2022/04/24 04:28:55;;;;;;;25.43;21.77;;;10.00;99.90;;;;;;5071517;28;20455;-66
2022/04/24 04:31:23;;;;;;;23.50;20.63;;;10.00;99.90;;;;;;5071356;28;20847;-67
2022/04/24 04:33:50;;;;;;;25.30;20.47;;;10.00;99.90;;;;;;5071511;28;20463;-67
2022/04/24 04:36:17;;;;;;;23.80;20.77;;;10.00;99.90;;;;;;5071084;28;20820;-66
2022/04/24 04:38:44;;;;;;;24.70;19.70;;;10.00;99.90;;;;;;5071341;28;20447;-66
2022/04/24 04:41:11;;;;;;;29.17;21.17;;;10.20;99.90;;;;;;5070991;28;20445;-66
2022/04/24 04:43:38;;;;;;;23.83;20.20;;;10.20;99.90;;;;;;5070950;28;21278;-66
2022/04/24 04:46:05;;;;;;;25.20;20.17;;;10.10;99.90;;;;;;5070821;28;20959;-66
2022/04/24 04:48:34;;;;;;;25.20;21.60;;;10.10;99.90;;;;;;5071332;28;20462;-66
2022/04/24 04:51:00;;;;;;;24.93;20.20;;;10.10;99.90;;;;;;5071300;28;20486;-66
2022/04/24 04:53:27;;;;;;;29.70;22.77;;;10.10;99.90;;;;;;5071001;28;20834;-66
2022/04/24 04:55:54;;;;;;;26.27;19.90;;;10.10;99.90;;;;;;5071018;28;20600;-65
2022/04/24 04:58:21;;;;;;;15.70;11.60;;;10.00;99.90;;;;;;5071026;28;20457;-65
2022/04/24 05:00:48;;;;;;;12.73;8.97;;;9.80;99.90;;;;;;5070910;28;20443;-65
2022/04/24 05:03:14;;;;;;;9.10;5.40;;;9.60;99.90;;;;;;5070776;28;20529;-67
2022/04/24 05:05:43;;;;;;;7.70;4.37;;;9.40;99.90;;;;;;5070358;28;20462;-67
2022/04/24 05:08:10;;;;;;;6.00;3.80;;;9.20;99.90;;;;;;5070674;28;20526;-65
2022/04/24 05:10:36;;;;;;;4.73;2.47;;;9.10;99.90;;;;;;5070582;28;20762;-67
2022/04/24 05:13:04;;;;;;;3.10;1.57;;;9.00;99.90;;;;;;5070472;28;20440;-65
2022/04/24 05:15:31;;;;;;;2.63;1.43;;;8.90;99.90;;;;;;5070194;28;20471;-65
2022/04/24 05:17:57;;;;;;;2.70;1.50;;;8.90;99.90;;;;;;5070551;28;20983;-64
2022/04/24 05:20:24;;;;;;;2.03;0.90;;;8.80;99.90;;;;;;5065840;28;118850;-67
2022/04/24 05:23:03;;;;;;;1.93;0.90;;;8.80;99.90;;;;;;5070196;28;20439;-65
2022/04/24 05:25:29;;;;;;;2.00;0.77;;;8.70;99.90;;;;;;5070754;28;20976;-67
2022/04/24 05:27:56;;;;;;;2.03;0.60;;;8.60;99.90;;;;;;5071309;28;20447;-65
2022/04/24 05:30:24;;;;;;;2.70;0.80;;;8.60;99.90;;;;;;5071120;28;20471;-65
2022/04/24 05:32:51;;;;;;;1.70;0.67;;;8.60;99.90;;;;;;5071361;28;20442;-68
2022/04/24 05:35:18;;;;;;;1.70;0.50;;;8.50;99.90;;;;;;5070870;28;20898;-67
2022/04/24 05:37:47;;;;;;;3.87;0.60;;;8.50;99.90;;;;;;5070960;28;20462;-67
2022/04/24 05:40:16;;;;;;;1.77;0.60;;;8.40;99.90;;;;;;5071224;28;20481;-67
2022/04/24 05:42:46;;;;;;;2.07;0.50;;;8.40;99.90;;;;;;5071188;28;20466;-68
2022/04/24 05:45:15;;;;;;;3.40;0.60;;;8.40;99.90;;;;;;5070419;28;21012;-68
2022/04/24 05:47:42;;;;;;;1.80;0.67;;;8.40;99.90;;;;;;5071028;28;20530;-65
2022/04/24 05:50:09;;;;;;;2.40;0.60;;;8.40;99.90;;;;;;5070817;28;20834;-65
2022/04/24 05:52:36;;;;;;;1.60;0.50;;;8.40;99.90;;;;;;5070131;28;21042;-67
2022/04/24 05:55:03;;;;;;;3.23;0.60;;;8.30;99.90;;;;;;5070641;28;20485;-67
2022/04/24 05:57:31;;;;;;;1.43;0.50;;;8.30;99.90;;;;;;5070549;28;20443;-65
2022/04/24 05:59:59;;;;;;;2.43;0.60;;;8.20;99.90;;;;;;5070879;28;20558;-65
2022/04/24 06:02:25;;;;;;;1.47;0.50;;;8.20;99.90;;;;;;5070812;28;20447;-64
2022/04/24 06:04:54;;;;;;;1.60;0.60;;;8.20;99.90;;;;;;5070275;28;20473;-65
2022/04/24 06:07:23;;;;;;;2.10;0.70;;;8.20;99.90;;;;;;5070355;28;20530;-65
2022/04/24 06:09:50;;;;;;;1.57;0.50;;;8.20;99.90;;;;;;5070886;28;20451;-64
2022/04/24 06:12:17;;;;;;;2.00;0.47;;;8.20;99.90;;;;;;5070515;28;20482;-66
2022/04/24 06:14:45;;;;;;;2.60;0.60;;;8.20;99.90;;;;;;5070052;28;20466;-65
2022/04/24 06:17:12;;;;;;;2.50;0.50;;;8.20;99.90;;;;;;5070403;28;20450;-65
2022/04/24 06:19:39;;;;;;;1.40;0.50;;;8.20;99.90;;;;;;5070237;28;20455;-65
2022/04/24 06:22:06;;;;;;;1.50;0.50;;;8.20;99.90;;;;;;5070324;28;20451;-65
2022/04/24 06:24:33;;;;;;;2.00;0.60;;;8.20;99.90;;;;;;5069782;28;20558;-66
2022/04/24 06:27:00;;;;;;;1.50;0.50;;;8.20;99.90;;;;;;5070519;28;20833;-66
2022/04/24 06:29:27;;;;;;;2.60;0.60;;;8.20;99.90;;;;;;5070168;28;20454;-66
2022/04/24 06:31:55;;;;;;;3.80;0.90;;;8.20;99.90;;;;;;5070198;28;21001;-66
2022/04/24 06:34:22;;;;;;;1.80;0.80;;;8.20;99.90;;;;;;5069870;28;20562;-66
2022/04/24 06:36:48;;;;;;;2.47;0.70;;;8.20;99.90;;;;;;5070364;28;20958;-66
2022/04/24 06:39:15;;;;;;;1.50;0.60;;;8.30;99.90;;;;;;5070193;28;20961;-65
2022/04/24 06:41:42;;;;;;;1.47;0.50;;;8.30;99.90;;;;;;5070155;28;20940;-66
2022/04/24 06:44:09;;;;;;;2.10;0.60;;;8.30;99.90;;;;;;5069610;28;20879;-66
2022/04/24 06:46:36;;;;;;;1.50;0.60;;;8.40;99.90;;;;;;5069880;28;20471;-66
2022/04/24 06:49:04;;;;;;;1.70;0.50;;;8.40;99.90;;;;;;5070076;28;20931;-66
2022/04/24 06:51:31;;;;;;;2.07;0.67;;;8.40;99.90;;;;;;5069826;28;20489;-66
2022/04/24 06:53:57;;;;;;;1.60;0.50;;;8.50;99.90;;;;;;5069867;28;20542;-66
2022/04/24 06:56:24;;;;;;;1.50;0.50;;;8.50;99.90;;;;;;5069613;28;20900;-66
2022/04/24 06:58:52;;;;;;;1.47;0.50;;;8.50;99.90;;;;;;5069848;28;20442;-68
2022/04/24 07:01:19;;;;;;;1.97;0.53;;;8.50;99.90;;;;;;5069868;28;20443;-66
2022/04/24 07:03:46;;;;;;;1.50;0.50;;;8.50;99.90;;;;;;5069937;28;20474;-66
2022/04/24 07:06:14;;;;;;;1.40;0.60;;;8.60;99.90;;;;;;5069486;28;20447;-66
2022/04/24 07:08:41;;;;;;;1.70;0.50;;;8.50;99.90;;;;;;5069922;28;20446;-66
2022/04/24 07:11:10;;;;;;;1.60;0.50;;;8.50;99.90;;;;;;5069617;28;20501;-66
2022/04/24 07:13:38;;;;;;;1.60;0.57;;;8.60;99.90;;;;;;5069630;28;20478;-67
2022/04/24 07:16:06;;;;;;;1.43;0.50;;;8.50;99.90;;;;;;5069761;28;20447;-67
2022/04/24 07:18:33;;;;;;;1.90;0.60;;;8.50;99.90;;;;;;5069845;28;20532;-66
2022/04/24 07:21:00;;;;;;;1.60;0.50;;;8.50;99.90;;;;;;5069554;28;20541;-67
2022/04/24 07:23:29;;;;;;;1.40;0.40;;;8.50;99.90;;;;;;5069621;28;20447;-67
2022/04/24 07:25:56;;;;;;;1.70;0.60;;;8.60;99.90;;;;;;5069168;28;20829;-66
2022/04/24 07:28:23;;;;;;;2.57;0.67;;;8.50;99.90;;;;;;5069395;28;20545;-66
2022/04/24 07:30:49;;;;;;;2.00;0.60;;;8.60;99.90;;;;;;5069541;28;20447;-66
2022/04/24 07:33:16;;;;;;;1.43;0.50;;;8.60;99.90;;;;;;5069432;28;20554;-66
2022/04/24 07:35:43;;;;;;;1.77;0.67;;;8.60;99.90;;;;;;5069181;28;20449;-67
2022/04/24 07:38:11;;;;;;;1.50;0.50;;;8.60;99.90;;;;;;5069367;28;20440;-66
2022/04/24 07:40:40;;;;;;;2.00;0.60;;;8.60;99.90;;;;;;5069312;28;20489;-66
2022/04/24 07:43:08;;;;;;;1.60;0.60;;;8.70;99.90;;;;;;5069198;28;21213;-66
2022/04/24 07:45:36;;;;;;;3.50;0.70;;;8.70;99.90;;;;;;5069085;28;20473;-66
2022/04/24 07:48:04;;;;;;;1.50;0.60;;;8.80;99.90;;;;;;5069392;28;20457;-65
2022/04/24 07:50:34;;;;;;;2.27;0.80;;;8.80;99.90;;;;;;5069451;28;20443;-66
2022/04/24 07:53:02;;;;;;;2.00;0.80;;;8.80;99.90;;;;;;5069147;28;20489;-66
2022/04/24 07:55:29;;;;;;;2.30;0.70;;;8.80;99.90;;;;;;5068735;28;20467;-66
2022/04/24 07:57:58;;;;;;;2.43;0.77;;;8.80;99.90;;;;;;5069210;28;20830;-65
2022/04/24 08:00:27;;;;;;;1.90;0.80;;;8.90;99.90;;;;;;5069315;28;20474;-65
2022/04/24 08:02:57;;;;;;;2.60;0.77;;;8.90;99.90;;;;;;5068126;28;20524;-65
2022/04/24 08:05:25;;;;;;;1.80;0.70;;;9.00;99.90;;;;;;5068678;28;20301;-65
2022/04/24 08:07:52;;;;;;;1.60;0.60;;;9.00;99.90;;;;;;5068894;28;20451;-65
2022/04/24 08:10:20;;;;;;;1.50;0.57;;;9.10;99.90;;;;;;5069340;28;20451;-69
2022/04/24 08:12:48;;;;;;;1.50;0.50;;;9.10;99.90;;;;;;5069254;28;21020;-70
2022/04/24 08:15:16;;;;;;;1.60;0.50;;;9.00;99.90;;;;;;5069987;28;20462;-68
2022/04/24 08:17:43;;;;;;;1.50;0.50;;;9.00;99.90;;;;;;5072607;28;20438;-69
2022/04/24 08:20:12;;;;;;;1.80;0.63;;;9.00;99.90;;;;;;5072666;28;20445;-66
2022/04/24 08:22:43;;;;;;;1.90;0.70;;;9.00;99.90;;;;;;5070405;28;20454;-66
2022/04/24 08:25:11;;;;;;;1.70;0.60;;;9.00;99.90;;;;;;5069676;28;20463;-65
2022/04/24 08:27:39;;;;;;;1.67;0.60;;;9.00;99.90;;;;;;5070598;28;20526;-66
2022/04/24 08:30:08;;;;;;;1.67;0.60;;;9.00;99.90;;;;;;5072365;28;20439;-66
2022/04/24 08:32:37;;;;;;;2.27;0.70;;;9.00;99.90;;;;;;5071000;28;20475;-66
2022/04/24 08:35:06;;;;;;;1.63;0.73;;;9.00;99.90;;;;;;5067279;28;20502;-59
2022/04/24 08:37:33;;;;;;;1.60;0.70;;;9.00;99.90;;;;;;5069340;28;20495;-66
2022/04/24 08:40:00;;;;;;;1.60;0.60;;;9.00;99.90;;;;;;5060520;28;20838;-66
2022/04/24 08:42:27;;;;;;;2.53;0.80;;;9.00;99.90;;;;;;5062422;28;20454;-66
2022/04/24 08:44:56;;;;;;;1.60;0.70;;;9.00;99.90;;;;;;5060580;28;20558;-63
2022/04/24 08:47:24;;;;;;;2.20;1.00;;;9.00;99.90;;;;;;5057602;28;20454;-63
2022/04/24 08:49:54;;;;;;;2.70;1.07;;;9.10;99.90;;;;;;5064579;28;20448;-67
2022/04/24 08:52:22;;;;;;;1.90;0.90;;;9.10;99.90;;;;;;5069410;28;20483;-64
2022/04/24 08:54:50;;;;;;;3.63;1.73;;;9.20;99.90;;;;;;5070144;28;20482;-64
2022/04/24 08:57:17;;;;;;;3.10;1.03;;;9.40;99.90;;;;;;5072036;28;20454;-65
2022/04/24 08:59:45;;;;;;;2.00;0.90;;;9.50;99.90;;;;;;5062999;28;20480;-64
2022/04/24 09:02:12;;;;;;;1.90;1.00;;;9.60;99.90;;;;;;5070218;28;20450;-65
2022/04/24 09:04:40;;;;;;;3.47;1.00;;;9.70;99.90;;;;;;5072194;28;20461;-64
2022/04/24 09:07:17;;;;;;;2.30;1.30;;;9.80;99.90;;;;;;5064376;28;20449;-64
2022/04/24 09:09:46;;;;;;;2.80;1.07;;;9.80;99.90;;;;;;5071622;28;20492;-64
2022/04/24 09:12:15;;;;;;;3.47;1.20;;;9.90;99.90;;;;;;5071619;28;20510;-64
2022/04/24 09:14:42;;;;;;;3.33;1.20;;;9.90;99.90;;;;;;5070975;28;20470;-65
2022/04/24 09:17:18;;;;;;;2.30;1.10;;;10.00;99.90;;;;;;5071985;28;20462;-64
2022/04/24 09:19:45;;;;;;;2.10;1.23;;;10.00;99.90;;;;;;5071821;28;20527;-66
2022/04/24 09:22:13;;;;;;;2.00;1.00;;;10.10;99.90;;;;;;5070401;28;20981;-70
2022/04/24 09:24:42;;;;;;;2.73;1.53;;;10.10;99.90;;;;;;5053047;28;20464;-65
2022/04/24 09:27:10;;;;;;;3.77;1.70;;;10.10;99.90;;;;;;5053022;28;20641;-66
2022/04/24 09:29:39;;;;;;;2.00;1.30;;;10.10;99.90;;;;;;5058277;28;20633;-67
2022/04/24 09:32:11;;;;;;;3.17;1.83;;;10.10;99.90;;;;;;5055203;28;20488;-64
2022/04/24 09:34:38;;;;;;;4.93;1.63;;;10.10;99.90;;;;;;5051716;28;20498;-66
2022/04/24 09:37:08;;;;;;;3.87;1.47;;;10.20;99.90;;;;;;5056032;28;20447;-65
2022/04/24 09:39:38;;;;;;;4.60;1.57;;;10.20;99.90;;;;;;5055202;28;20454;-65
2022/04/24 09:42:09;;;;;;;3.57;1.70;;;10.30;99.90;;;;;;5058283;28;20443;-66
2022/04/24 09:44:38;;;;;;;4.97;2.07;;;10.50;99.90;;;;;;5053297;28;20827;-65
2022/04/24 09:47:06;;;;;;;3.23;1.60;;;10.60;99.90;;;;;;5053886;28;20461;-65
2022/04/24 09:49:36;;;;;;;3.60;1.60;;;10.50;99.90;;;;;;5055048;28;20486;-67
2022/04/24 09:52:08;;;;;;;3.53;1.60;;;10.50;99.90;;;;;;5062509;28;20479;-66
2022/04/24 09:54:38;;;;;;;2.83;1.30;;;10.60;99.90;;;;;;5059488;28;20479;-66
2022/04/24 09:57:05;;;;;;;2.40;1.30;;;10.60;99.90;;;;;;5064012;28;20443;-66
2022/04/24 09:59:33;;;;;;;3.03;1.40;;;10.60;99.90;;;;;;5068927;28;20844;-66
2022/04/24 10:02:00;;;;;;;3.63;1.30;;;10.60;99.90;;;;;;5058699;28;20735;-65
2022/04/24 10:04:28;;;;;;;2.30;1.13;;;10.60;99.90;;;;;;5062027;28;20479;-66
2022/04/24 10:06:55;;;;;;;3.03;1.33;;;10.70;99.90;;;;;;5068774;28;20518;-66
2022/04/24 10:09:23;;;;;;;2.20;1.20;;;10.70;99.90;;;;;;5069591;28;20435;-65
2022/04/24 10:11:52;;;;;;;2.30;1.30;;;10.60;99.90;;;;;;5063764;28;20829;-65
2022/04/24 10:14:20;;;;;;;2.13;1.30;;;10.60;99.90;;;;;;5062376;28;20475;-65
2022/04/24 10:17:29;;;;;;;2.80;1.60;;;10.50;99.90;;;;;;5060264;28;20516;-65
2022/04/24 10:20:28;;;;;;;4.00;1.70;;;10.50;99.90;;;;;;5064800;28;20473;-66
2022/04/24 10:22:56;;;;;;;3.50;1.40;;;10.60;99.90;;;;;;5037783;28;20459;-66
2022/04/24 10:25:31;;;;;;;3.13;1.50;;;10.70;99.90;;;;;;5062938;28;20479;-65
2022/04/24 10:28:10;;;;;;;2.40;1.07;;;10.60;99.90;;;;;;5071442;28;20439;-66
2022/04/24 10:30:37;;;;;;;2.90;1.60;;;10.70;99.90;;;;;;5061141;28;20521;-65
2022/04/24 10:33:17;;;;;;;3.50;2.60;;;10.70;99.90;;;;;;5068149;28;20479;-66
2022/04/24 10:35:48;;;;;;;2.73;2.03;;;10.70;99.90;;;;;;5065112;28;20486;-66
2022/04/24 10:38:17;;;;;;;2.30;1.30;;;10.80;99.90;;;;;;5067602;28;20455;-65
2022/04/24 10:40:55;;;;;;;2.27;1.20;;;10.80;99.90;;;;;;5067361;28;20459;-66
2022/04/24 10:43:25;;;;;;;3.00;1.47;;;10.80;99.90;;;;;;5064971;28;20450;-66
2022/04/24 10:45:52;;;;;;;2.20;1.50;;;10.70;99.90;;;;;;5063921;28;20789;-65
2022/04/24 10:48:19;;;;;;;3.67;1.53;;;10.70;99.90;;;;;;5065018;28;20479;-67
2022/04/24 10:50:47;;;;;;;3.17;1.70;;;10.60;99.90;;;;;;5067546;28;20610;-65
2022/04/24 10:53:15;;;;;;;3.70;1.97;;;10.50;99.90;;;;;;5061649;28;20482;-65
2022/04/24 10:55:42;;;;;;;3.27;1.43;;;10.50;99.90;;;;;;5061817;28;20470;-66
2022/04/24 10:58:11;;;;;;;4.20;1.70;;;10.50;99.90;;;;;;5059164;28;20459;-66
2022/04/24 11:00:40;;;;;;;2.30;1.67;;;10.40;99.90;;;;;;5064832;28;20451;-64
2022/04/24 11:03:14;;;;;;;2.50;1.43;;;10.60;99.90;;;;;;5057638;28;20447;-65
2022/04/24 11:05:43;;;;;;;2.33;1.53;;;10.70;99.90;;;;;;5064660;28;20483;-63
2022/04/24 11:08:14;;;;;;;2.60;1.40;;;10.80;99.90;;;;;;5057348;28;20456;-66
2022/04/24 11:10:42;;;;;;;2.87;1.50;;;10.90;99.90;;;;;;5057939;28;20547;-65
2022/04/24 11:13:11;;;;;;;2.83;1.90;;;10.90;99.90;;;;;;5056514;28;20479;-66
2022/04/24 11:15:44;;;;;;;2.70;1.53;;;10.90;99.90;;;;;;5053809;28;20570;-66
2022/04/24 11:18:22;;;;;;;3.70;1.50;;;11.00;99.90;;;;;;5066227;28;20448;-65
2022/04/24 11:20:58;;;;;;;4.27;1.67;;;11.10;99.90;;;;;;5060952;28;20480;-64
2022/04/24 11:23:29;;;;;;;2.30;1.40;;;11.20;99.90;;;;;;5060565;28;20455;-64
2022/04/24 11:25:56;;;;;;;2.73;2.03;;;11.10;99.90;;;;;;5057816;28;20489;-65
2022/04/24 11:28:35;;;;;;;2.13;1.37;;;11.10;99.90;;;;;;5058999;28;20460;-65
2022/04/24 11:31:13;;;;;;;2.40;1.40;;;11.10;99.90;;;;;;5058833;28;20512;-65
2022/04/24 11:33:52;;;;;;;2.30;1.37;;;11.10;99.90;;;;;;5056300;28;20589;-66
2022/04/24 11:36:19;;;;;;;2.20;1.17;;;11.30;99.90;;;;;;5066926;28;20439;-66
2022/04/24 11:38:47;;;;;;;2.37;1.10;;;11.30;99.90;;;;;;5062681;28;20462;-65
2022/04/24 11:41:14;;;;;;;3.17;1.23;;;11.40;99.90;;;;;;5062669;28;20459;-66
2022/04/24 11:43:41;;;;;;;3.40;1.23;;;11.40;99.90;;;;;;5050982;28;20483;-66
2022/04/24 11:51:40;;;;;;;3.57;1.37;;;11.60;99.90;;;;;;5065797;28;21017;-65
2022/04/24 11:54:08;;;;;;;2.73;1.13;;;11.70;99.90;;;;;;5051600;28;20490;-66
2022/04/24 11:56:37;;;;;;;2.47;0.90;;;11.80;99.90;;;;;;5058623;28;20455;-61
2022/04/24 11:59:15;;;;;;;2.77;1.10;;;11.60;99.90;;;;;;5058460;28;21161;-66
2022/04/24 12:01:45;;;;;;;2.10;1.10;;;11.60;99.90;;;;;;5066010;28;20955;-65
2022/04/24 12:04:18;;;;;;;2.30;1.20;;;11.70;99.90;;;;;;5063110;28;20482;-65
2022/04/24 12:06:45;;;;;;;2.50;1.00;;;11.60;99.90;;;;;;5060897;28;20466;-65
2022/04/24 12:09:12;;;;;;;2.07;1.03;;;11.70;99.90;;;;;;5062904;28;20459;-66
2022/04/24 12:11:39;;;;;;;2.13;0.90;;;11.60;99.90;;;;;;5064047;28;20559;-66
2022/04/24 12:14:08;;;;;;;3.00;1.07;;;11.60;99.90;;;;;;5067185;28;20570;-67
2022/04/24 12:16:35;;;;;;;2.10;1.00;;;11.80;99.90;;;;;;5067899;28;20557;-67
2022/04/24 12:19:04;;;;;;;2.03;0.90;;;12.00;99.90;;;;;;5067664;28;20466;-67
2022/04/24 12:21:33;;;;;;;3.70;1.23;;;12.10;99.90;;;;;;5074569;28;20455;-67
2022/04/24 12:24:00;;;;;;;2.17;1.20;;;12.20;99.90;;;;;;5073257;28;20820;-67
2022/04/24 12:26:28;;;;;;;2.47;1.20;;;12.30;99.90;;;;;;5063779;28;20461;-69
2022/04/24 12:28:54;;;;;;;2.10;1.13;;;12.30;99.90;;;;;;5076679;28;20457;-67
2022/04/24 12:31:23;;;;;;;2.03;0.93;;;12.20;99.90;;;;;;5079434;28;20445;-70
2022/04/24 12:33:52;;;;;;;1.80;0.93;;;12.30;99.90;;;;;;5072717;28;20557;-67
2022/04/24 12:36:21;;;;;;;1.80;1.00;;;12.50;99.90;;;;;;5078086;28;20446;-68
2022/04/24 12:38:55;;;;;;;2.33;0.93;;;12.60;99.90;;;;;;5075195;28;20465;-68
2022/04/24 12:41:25;;;;;;;2.07;0.80;;;12.80;99.90;;;;;;5076870;28;20458;-69
2022/04/24 12:43:52;;;;;;;2.53;0.90;;;12.80;99.90;;;;;;5065966;28;20463;-70
2022/04/24 12:46:20;;;;;;;1.90;0.90;;;13.00;99.90;;;;;;5071270;28;20450;-68
2022/04/24 12:48:48;;;;;;;2.63;0.90;;;13.00;99.90;;;;;;5073765;28;20446;-67
2022/04/24 12:51:15;;;;;;;1.87;0.87;;;12.80;99.90;;;;;;5070661;28;20537;-67
2022/04/24 12:53:44;;;;;;;2.30;0.83;;;12.80;99.90;;;;;;5081977;28;20489;-70